createdAt,value
2019-05-15T00:00:41.647Z,53.05
2019-05-15T00:03:11.341Z,52.54
2019-05-15T00:05:41.155Z,53.33
2019-05-15T00:08:10.737Z,53.49
2019-05-15T00:10:40.375Z,53.28
2019-05-15T00:13:09.988Z,53.97
2019-05-15T00:15:40.469Z,54.03
2019-05-15T00:18:10.195Z,53.72
2019-05-15T00:20:39.898Z,54.07
2019-05-15T00:23:09.519Z,54.22
2019-05-15T00:25:39.650Z,53.78
2019-05-15T00:28:09.862Z,54.31
2019-05-15T00:30:39.692Z,54.45
2019-05-15T00:33:09.460Z,55.04
2019-05-15T00:35:39.780Z,55.85
2019-05-15T00:38:09.842Z,56.19
2019-05-15T00:40:39.828Z,56.69
2019-05-15T00:43:09.622Z,56.95
2019-05-15T00:45:39.364Z,56.53
2019-05-15T00:48:09.140Z,57.05
2019-05-15T00:50:39.666Z,56.60
2019-05-15T00:53:09.967Z,56.24
2019-05-15T00:55:40.241Z,56.47
2019-05-15T00:58:09.881Z,56.48
2019-05-15T01:00:44.804Z,57.23
2019-05-15T01:03:14.499Z,57.30
2019-05-15T01:05:44.106Z,57.23
2019-05-15T01:08:13.716Z,57.20
2019-05-15T01:10:43.592Z,57.38
2019-05-15T01:13:13.202Z,57.34
2019-05-15T01:15:42.839Z,57.61
2019-05-15T01:18:12.453Z,57.96
2019-05-15T01:20:42.099Z,57.87
2019-05-15T01:23:11.714Z,57.43
2019-05-15T01:25:41.344Z,57.81
2019-05-15T01:28:10.961Z,58.39
2019-05-15T01:31:37.897Z,58.64
2019-05-15T01:34:09.053Z,58.68
2019-05-15T01:36:38.399Z,58.75
2019-05-15T01:39:08.387Z,58.10
2019-05-15T01:41:38.672Z,57.94
2019-05-15T01:44:08.938Z,58.15
2019-05-15T01:46:39.268Z,58.62
2019-05-15T01:49:09.248Z,59.02
2019-05-15T01:51:38.864Z,58.72
2019-05-15T01:54:09.125Z,58.76
2019-05-15T01:56:38.986Z,58.71
2019-05-15T01:59:08.830Z,58.84
2019-05-15T02:01:39.240Z,59.16
2019-05-15T02:04:09.096Z,58.75
2019-05-15T02:06:39.230Z,56.86
2019-05-15T02:09:09.462Z,58.34
2019-05-15T02:11:39.065Z,58.92
2019-05-15T02:14:08.702Z,58.66
2019-05-15T02:16:39.281Z,59.06
2019-05-15T02:19:09.145Z,57.82
2019-05-15T02:21:38.753Z,58.21
2019-05-15T02:24:08.413Z,58.42
2019-05-15T02:26:38.811Z,58.83
2019-05-15T02:29:13.147Z,59.00
2019-05-15T02:31:40.106Z,59.40
2019-05-15T02:34:10.360Z,58.29
2019-05-15T02:36:40.453Z,58.01
2019-05-15T02:39:10.841Z,59.71
2019-05-15T02:41:40.487Z,58.78
2019-05-15T02:44:10.906Z,58.92
2019-05-15T02:46:40.812Z,59.46
2019-05-15T02:49:10.422Z,59.29
2019-05-15T02:51:40.231Z,59.01
2019-05-15T02:54:10.474Z,60.30
2019-05-15T02:56:40.610Z,59.32
2019-05-15T02:59:10.239Z,59.97
2019-05-15T03:01:40.684Z,60.59
2019-05-15T03:04:10.553Z,60.95
2019-05-15T03:06:40.231Z,61.00
2019-05-15T03:09:09.949Z,60.94
2019-05-15T03:11:40.982Z,60.81
2019-05-15T03:14:10.939Z,60.05
2019-05-15T03:16:40.823Z,59.41
2019-05-15T03:19:10.591Z,60.54
2019-05-15T03:21:40.272Z,60.72
2019-05-15T03:24:10.436Z,61.61
2019-05-15T03:26:40.176Z,61.50
2019-05-15T03:29:10.090Z,61.02
2019-05-15T03:31:53.000Z,60.63
2019-05-15T03:34:20.429Z,60.44
2019-05-15T03:36:45.482Z,60.16
2019-05-15T03:39:14.185Z,59.83
2019-05-15T03:41:43.902Z,60.17
2019-05-15T03:44:13.523Z,60.52
2019-05-15T03:46:43.225Z,61.04
2019-05-15T03:49:12.900Z,60.97
2019-05-15T03:51:45.625Z,60.98
2019-05-15T03:54:14.048Z,60.96
2019-05-15T03:56:43.658Z,61.27
2019-05-15T03:59:13.288Z,61.24
2019-05-15T04:01:43.763Z,61.25
2019-05-15T04:04:13.864Z,61.35
2019-05-15T04:06:43.475Z,61.38
2019-05-15T04:09:13.474Z,61.54
2019-05-15T04:11:43.148Z,61.10
2019-05-15T04:14:12.768Z,61.32
2019-05-15T04:16:42.474Z,61.37
2019-05-15T04:19:12.098Z,61.53
2019-05-15T04:21:45.025Z,61.44
2019-05-15T04:24:14.370Z,62.46
2019-05-15T04:26:48.814Z,62.68
2019-05-15T04:29:19.479Z,62.79
2019-05-15T04:31:59.865Z,62.84
2019-05-15T04:34:20.733Z,62.80
2019-05-15T04:36:50.363Z,63.14
2019-05-15T04:39:19.999Z,62.88
2019-05-15T04:41:50.158Z,63.17
2019-05-15T04:44:19.918Z,62.96
2019-05-15T04:46:50.033Z,63.05
2019-05-15T04:49:20.027Z,62.79
2019-05-15T04:51:50.009Z,62.47
2019-05-15T04:54:20.222Z,62.84
2019-05-15T04:56:49.962Z,61.88
2019-05-15T04:59:19.990Z,62.13
2019-05-15T05:01:53.225Z,62.12
2019-05-15T05:04:21.411Z,61.67
2019-05-15T05:06:51.686Z,61.19
2019-05-15T05:09:21.903Z,63.19
2019-05-15T05:11:51.543Z,63.30
2019-05-15T05:14:21.165Z,63.35
2019-05-15T05:16:50.793Z,63.70
2019-05-15T05:19:20.472Z,63.87
2019-05-15T05:21:50.121Z,63.34
2019-05-15T05:24:19.739Z,62.54
2019-05-15T05:26:49.374Z,62.34
2019-05-15T05:29:19.122Z,62.71
2019-05-15T05:31:49.266Z,63.00
2019-05-15T05:34:19.512Z,63.22
2019-05-15T05:36:49.202Z,63.12
2019-05-15T05:39:20.006Z,62.38
2019-05-15T05:41:49.730Z,61.93
2019-05-15T05:44:19.444Z,62.44
2019-05-15T05:46:49.050Z,62.28
2019-05-15T05:49:18.692Z,62.07
2019-05-15T05:51:48.304Z,62.32
2019-05-15T05:54:18.314Z,62.32
2019-05-15T05:56:48.404Z,62.10
2019-05-15T05:59:18.584Z,62.24
2019-05-15T06:01:48.684Z,60.87
2019-05-15T06:04:18.766Z,61.60
2019-05-15T06:06:58.018Z,59.76
2019-05-15T06:09:19.913Z,60.49
2019-05-15T06:11:49.552Z,60.70
2019-05-15T06:14:19.171Z,60.54
2019-05-15T06:16:48.819Z,61.95
2019-05-15T06:19:18.452Z,60.97
2019-05-15T06:21:56.808Z,60.36
2019-05-15T06:24:19.433Z,60.17
2019-05-15T06:26:49.047Z,58.59
2019-05-15T06:29:18.686Z,58.41
2019-05-15T06:31:48.532Z,59.05
2019-05-15T06:34:18.457Z,57.08
2019-05-15T06:36:48.563Z,60.58
2019-05-15T06:39:18.458Z,59.79
2019-05-15T06:41:48.403Z,59.43
2019-05-15T06:44:18.741Z,59.52
2019-05-15T06:46:48.770Z,58.86
2019-05-15T06:49:18.380Z,57.96
2019-05-15T06:51:48.801Z,58.12
2019-05-15T06:54:19.030Z,56.74
2019-05-15T06:56:49.368Z,56.09
2019-05-15T06:59:19.245Z,57.61
2019-05-15T07:01:48.875Z,56.62
2019-05-15T07:04:18.514Z,57.01
2019-05-15T07:06:48.936Z,55.70
2019-05-15T07:09:18.875Z,56.01
2019-05-15T07:11:48.540Z,56.30
2019-05-15T07:14:18.340Z,56.74
2019-05-15T07:16:48.709Z,56.07
2019-05-15T07:19:19.162Z,56.43
2019-05-15T07:21:49.353Z,55.17
2019-05-15T07:24:18.988Z,55.06
2019-05-15T07:26:48.612Z,54.66
2019-05-15T07:29:18.874Z,53.83
2019-05-15T07:31:48.792Z,55.93
2019-05-15T07:34:18.895Z,55.01
2019-05-15T07:36:49.371Z,55.54
2019-05-15T07:39:19.142Z,55.71
2019-05-15T07:41:48.861Z,54.79
2019-05-15T07:44:18.963Z,54.01
2019-05-15T07:46:48.953Z,54.11
2019-05-15T07:49:18.767Z,54.61
2019-05-15T07:51:49.034Z,55.15
2019-05-15T07:54:18.890Z,53.81
2019-05-15T07:56:48.934Z,54.32
2019-05-15T07:59:18.851Z,53.26
2019-05-15T08:01:48.985Z,53.46
2019-05-15T08:04:26.207Z,54.57
2019-05-15T08:06:50.176Z,51.99
2019-05-15T08:09:19.843Z,51.99
2019-05-15T08:11:51.340Z,51.78
2019-05-15T08:14:20.990Z,50.57
2019-05-15T08:16:50.675Z,50.96
2019-05-15T08:19:20.282Z,49.37
2019-05-15T08:21:51.757Z,50.30
2019-05-15T08:24:21.313Z,47.56
2019-05-15T08:26:50.955Z,47.27
2019-05-15T08:29:21.811Z,48.08
2019-05-15T08:31:51.646Z,48.31
2019-05-15T08:34:21.340Z,47.82
2019-05-15T08:36:51.208Z,49.07
2019-05-15T08:39:20.898Z,48.03
2019-05-15T08:41:50.555Z,47.25
2019-05-15T08:44:20.176Z,45.71
2019-05-15T08:46:49.825Z,46.64
2019-05-15T08:49:20.558Z,46.33
2019-05-15T08:51:50.545Z,45.90
2019-05-15T08:54:20.244Z,47.12
2019-05-15T08:56:50.111Z,46.16
2019-05-15T08:59:19.773Z,46.71
2019-05-15T09:01:49.385Z,47.47
2019-05-15T09:04:27.868Z,46.52
2019-05-15T09:06:50.377Z,46.52
2019-05-15T09:09:20.026Z,47.27
2019-05-15T09:11:49.659Z,45.85
2019-05-15T09:14:19.289Z,45.69
2019-05-15T09:16:49.160Z,45.82
2019-05-15T09:19:18.936Z,46.68
2019-05-15T09:21:49.607Z,45.95
2019-05-15T09:24:19.993Z,45.02
2019-05-15T09:26:50.016Z,44.35
2019-05-15T09:29:19.699Z,44.27
2019-05-15T09:31:49.344Z,44.55
2019-05-15T09:34:18.974Z,44.83
2019-05-15T09:36:48.988Z,44.07
2019-05-15T09:39:18.671Z,43.80
2019-05-15T09:41:48.872Z,43.55
2019-05-15T09:44:21.643Z,43.43
2019-05-15T09:46:50.230Z,42.16
2019-05-15T09:49:19.870Z,41.31
2019-05-15T09:51:49.498Z,42.84
2019-05-15T09:54:21.300Z,40.85
2019-05-15T09:56:51.354Z,41.22
2019-05-15T09:59:21.048Z,40.06
2019-05-15T10:01:50.743Z,40.51
2019-05-15T10:04:20.389Z,39.99
2019-05-15T10:06:50.077Z,40.13
2019-05-15T10:09:19.955Z,40.59
2019-05-15T10:11:49.574Z,41.50
2019-05-15T10:14:19.665Z,41.06
2019-05-15T10:16:50.077Z,40.44
2019-05-15T10:19:19.815Z,40.57
2019-05-15T10:21:53.033Z,40.66
2019-05-15T10:24:21.122Z,40.80
2019-05-15T10:26:50.909Z,41.48
2019-05-15T10:29:20.663Z,41.88
2019-05-15T10:31:50.303Z,40.81
2019-05-15T10:34:19.928Z,40.17
2019-05-15T10:36:49.688Z,41.46
2019-05-15T10:39:19.448Z,40.71
2019-05-15T10:41:49.149Z,40.25
2019-05-15T10:44:18.777Z,40.24
2019-05-15T10:46:48.557Z,39.88
2019-05-15T10:49:18.966Z,39.37
2019-05-15T10:51:48.783Z,39.74
2019-05-15T10:54:19.194Z,39.45
2019-05-15T10:56:49.167Z,39.71
2019-05-15T10:59:18.802Z,39.02
2019-05-15T11:01:48.879Z,38.68
2019-05-15T11:04:18.654Z,38.72
2019-05-15T11:06:49.039Z,37.73
2019-05-15T11:09:18.993Z,38.76
2019-05-15T11:11:51.631Z,39.50
2019-05-15T11:14:20.070Z,38.95
2019-05-15T11:16:49.715Z,39.50
2019-05-15T11:19:19.333Z,39.42
2019-05-15T11:21:48.982Z,40.41
2019-05-15T11:24:19.576Z,39.87
2019-05-15T11:26:50.087Z,39.43
2019-05-15T11:29:19.927Z,38.75
2019-05-15T11:31:49.572Z,38.93
2019-05-15T11:34:19.194Z,37.68
2019-05-15T11:36:48.930Z,37.85
2019-05-15T11:39:18.558Z,37.14
2019-05-15T11:41:49.228Z,38.30
2019-05-15T11:44:19.291Z,37.66
2019-05-15T11:46:49.604Z,37.54
2019-05-15T11:49:19.716Z,37.22
2019-05-15T11:51:49.470Z,37.49
2019-05-15T11:54:19.360Z,37.45
2019-05-15T11:56:49.421Z,36.48
2019-05-15T11:59:19.407Z,37.63
2019-05-15T12:01:49.087Z,38.10
2019-05-15T12:04:27.617Z,37.25
2019-05-15T12:06:58.648Z,37.84
2019-05-15T12:09:21.795Z,37.14
2019-05-15T12:11:51.418Z,35.06
2019-05-15T12:14:21.043Z,35.76
2019-05-15T12:17:05.145Z,35.09
2019-05-15T12:19:22.034Z,33.07
2019-05-15T12:21:51.681Z,34.10
2019-05-15T12:24:21.303Z,34.41
2019-05-15T12:26:50.953Z,34.68
2019-05-15T12:29:20.574Z,35.88
2019-05-15T12:31:50.219Z,35.78
2019-05-15T12:34:19.842Z,36.09
2019-05-15T12:36:56.822Z,36.18
2019-05-15T12:39:22.234Z,35.76
2019-05-15T13:02:03.353Z,33.13
2019-05-15T13:04:33.022Z,33.86
2019-05-15T13:07:12.651Z,34.19
2019-05-15T13:09:34.020Z,33.56
2019-05-15T13:12:03.655Z,34.08
2019-05-15T13:14:33.398Z,34.19
2019-05-15T13:17:03.024Z,35.20
2019-05-15T13:19:32.812Z,33.79
2019-05-15T13:22:02.699Z,34.61
2019-05-15T13:24:32.587Z,35.18
2019-05-15T13:27:02.402Z,34.86
2019-05-15T13:29:32.169Z,34.67
2019-05-15T13:32:02.154Z,35.15
2019-05-15T13:34:31.959Z,34.24
2019-05-15T13:37:01.749Z,34.10
2019-05-15T13:39:31.570Z,33.76
2019-05-15T13:42:01.498Z,33.54
2019-05-15T13:44:31.727Z,33.46
2019-05-15T13:47:01.424Z,35.61
2019-05-15T13:49:31.226Z,34.03
2019-05-15T13:52:00.862Z,35.69
2019-05-15T13:54:30.508Z,35.21
2019-05-15T13:57:00.155Z,35.13
2019-05-15T13:59:30.781Z,35.96
2019-05-15T14:02:00.408Z,35.05
2019-05-15T14:04:30.081Z,33.65
2019-05-15T14:06:59.716Z,33.35
2019-05-15T14:09:33.800Z,33.27
2019-05-15T14:12:00.811Z,32.38
2019-05-15T14:14:30.442Z,32.38
2019-05-15T14:17:00.093Z,32.37
2019-05-15T14:19:29.715Z,32.28
2019-05-15T14:21:59.400Z,33.02
2019-05-15T14:24:29.028Z,32.26
2019-05-15T14:26:59.362Z,33.60
2019-05-15T14:29:29.396Z,33.58
2019-05-15T14:31:59.032Z,32.49
2019-05-15T14:34:29.172Z,33.75
2019-05-15T14:36:59.287Z,33.75
2019-05-15T14:39:28.982Z,33.36
2019-05-15T14:41:58.728Z,32.12
2019-05-15T14:44:28.426Z,31.25
2019-05-15T14:46:58.618Z,31.56
2019-05-15T14:49:34.290Z,31.42
2019-05-15T14:52:08.224Z,32.23
2019-05-15T14:54:31.365Z,31.11
2019-05-15T14:57:01.057Z,32.79
2019-05-15T14:59:30.725Z,33.31
2019-05-15T15:02:00.710Z,34.04
2019-05-15T15:04:30.340Z,33.85
2019-05-15T15:06:59.996Z,34.79
2019-05-15T15:09:29.634Z,33.99
2019-05-15T15:11:59.278Z,34.33
2019-05-15T15:14:28.902Z,33.84
2019-05-15T15:16:58.828Z,34.16
2019-05-15T15:19:29.299Z,34.43
2019-05-15T15:21:59.137Z,34.01
2019-05-15T15:24:28.759Z,33.56
2019-05-15T15:26:58.931Z,33.77
2019-05-15T15:29:28.703Z,34.84
2019-05-15T15:31:58.925Z,33.49
2019-05-15T15:34:28.753Z,32.98
2019-05-15T15:36:58.390Z,34.01
2019-05-15T15:39:28.310Z,34.08
2019-05-15T15:41:57.993Z,33.90
2019-05-15T15:44:28.019Z,34.41
2019-05-15T15:46:59.157Z,34.75
2019-05-15T15:49:29.435Z,34.61
2019-05-15T15:51:59.155Z,34.72
2019-05-15T15:54:28.824Z,34.39
2019-05-15T15:56:58.437Z,34.50
2019-05-15T15:59:28.891Z,35.20
2019-05-15T16:01:59.887Z,34.11
2019-05-15T16:04:29.706Z,34.50
2019-05-15T16:06:59.470Z,34.16
2019-05-15T16:09:29.107Z,34.32
2019-05-15T16:11:58.752Z,34.60
2019-05-15T16:14:28.813Z,34.97
2019-05-15T16:16:58.453Z,35.44
2019-05-15T16:19:28.462Z,35.19
2019-05-15T16:21:59.521Z,35.63
2019-05-15T16:24:29.439Z,35.85
2019-05-15T16:27:00.976Z,36.43
2019-05-15T16:29:30.446Z,35.70
2019-05-15T16:32:00.078Z,36.25
2019-05-15T16:34:29.712Z,36.15
2019-05-15T16:36:59.394Z,36.34
2019-05-15T16:39:29.011Z,36.04
2019-05-15T16:41:59.422Z,35.20
2019-05-15T16:44:29.200Z,36.34
2019-05-15T16:46:58.950Z,36.91
2019-05-15T16:49:28.654Z,36.50
2019-05-15T16:51:58.448Z,35.63
2019-05-15T16:54:28.907Z,35.62
2019-05-15T16:56:59.436Z,35.25
2019-05-15T16:59:35.569Z,36.12
2019-05-15T17:02:00.826Z,37.08
2019-05-15T17:04:30.448Z,37.07
2019-05-15T17:07:00.097Z,36.54
2019-05-15T17:09:29.718Z,37.17
2019-05-15T17:11:59.366Z,37.52
2019-05-15T17:14:28.995Z,37.55
2019-05-15T17:16:58.861Z,37.30
2019-05-15T17:19:29.290Z,36.97
2019-05-15T17:21:59.126Z,37.61
2019-05-15T17:24:28.763Z,37.40
2019-05-15T17:26:59.574Z,37.29
2019-05-15T17:29:29.544Z,37.58
2019-05-15T17:31:59.219Z,38.51
2019-05-15T17:34:28.888Z,37.82
2019-05-15T17:36:59.090Z,38.38
2019-05-15T17:39:36.666Z,39.69
2019-05-15T17:42:00.144Z,39.76
2019-05-15T17:44:29.856Z,39.72
2019-05-15T17:46:59.468Z,39.90
2019-05-15T17:49:29.113Z,40.24
2019-05-15T17:51:58.757Z,40.41
2019-05-15T17:54:28.806Z,40.61
2019-05-15T17:56:58.692Z,40.31
2019-05-15T17:59:28.790Z,41.07
2019-05-15T18:01:59.567Z,40.82
2019-05-15T18:04:29.335Z,41.24
2019-05-15T18:06:59.223Z,40.96
2019-05-15T18:09:28.952Z,40.47
2019-05-15T18:11:58.783Z,41.58
2019-05-15T18:14:28.616Z,41.11
2019-05-15T18:16:58.709Z,40.69
2019-05-15T18:19:29.031Z,41.54
2019-05-15T18:21:59.352Z,41.01
2019-05-15T18:24:29.091Z,40.38
2019-05-15T18:26:58.723Z,41.77
2019-05-15T18:29:28.664Z,40.89
2019-05-15T18:31:58.424Z,41.19
2019-05-15T18:34:28.712Z,40.81
2019-05-15T18:36:58.561Z,40.83
2019-05-15T18:39:28.428Z,40.16
2019-05-15T18:41:58.277Z,39.99
2019-05-15T18:44:28.473Z,39.88
2019-05-15T18:46:58.274Z,39.78
2019-05-15T18:49:28.486Z,38.74
2019-05-15T18:51:58.375Z,38.99
2019-05-15T18:54:28.145Z,38.87
2019-05-15T18:56:58.449Z,38.68
2019-05-15T18:59:28.697Z,38.93
2019-05-15T19:01:58.751Z,38.35
2019-05-15T19:04:28.947Z,38.00
2019-05-15T19:06:59.582Z,38.28
2019-05-15T19:09:29.287Z,38.51
2019-05-15T19:11:58.930Z,38.30
2019-05-15T19:14:31.161Z,38.24
2019-05-15T19:17:00.888Z,38.63
2019-05-15T19:19:30.510Z,38.79
2019-05-15T19:22:00.132Z,38.02
2019-05-15T19:24:29.781Z,39.08
2019-05-15T19:26:59.408Z,39.00
2019-05-15T19:29:29.069Z,39.30
2019-05-15T19:31:58.696Z,39.71
2019-05-15T19:34:28.345Z,39.32
2019-05-15T19:36:58.240Z,39.78
2019-05-15T19:39:28.093Z,39.81
2019-05-15T19:41:58.330Z,39.99
2019-05-15T19:44:28.543Z,40.10
2019-05-15T19:46:58.660Z,40.64
2019-05-15T19:49:28.413Z,40.65
2019-05-15T19:51:58.242Z,40.94
2019-05-15T19:54:28.889Z,41.05
2019-05-15T19:56:58.731Z,41.81
2019-05-15T19:59:29.489Z,41.80
2019-05-15T20:01:59.555Z,41.88
2019-05-15T20:04:29.171Z,42.02
2019-05-15T20:06:58.811Z,41.89
2019-05-15T20:09:28.427Z,42.00
2019-05-15T20:11:58.610Z,42.03
2019-05-15T20:14:28.808Z,42.22
2019-05-15T20:16:59.067Z,42.46
2019-05-15T20:19:28.894Z,42.57
2019-05-15T20:21:58.578Z,42.49
2019-05-15T20:24:28.720Z,42.67
2019-05-15T20:26:58.575Z,42.09
2019-05-15T20:29:28.943Z,42.38
2019-05-15T20:31:58.878Z,42.58
2019-05-15T20:34:28.799Z,42.94
2019-05-15T20:36:58.874Z,42.83
2019-05-15T20:39:28.649Z,42.79
2019-05-15T20:41:58.951Z,42.78
2019-05-15T20:44:28.575Z,43.32
2019-05-15T20:46:59.005Z,43.57
2019-05-15T20:49:28.897Z,43.55
2019-05-15T20:51:58.547Z,43.21
2019-05-15T20:54:28.547Z,43.07
2019-05-15T20:56:58.500Z,43.54
2019-05-15T20:59:28.287Z,44.12
2019-05-15T21:01:59.320Z,43.33
2019-05-15T21:04:29.331Z,43.45
2019-05-15T21:06:58.978Z,43.24
2019-05-15T21:09:30.743Z,43.65
2019-05-15T21:12:00.055Z,43.88
2019-05-15T21:14:29.746Z,44.19
2019-05-15T21:16:59.466Z,44.22
2019-05-15T21:19:29.082Z,44.41
2019-05-15T21:21:59.023Z,44.50
2019-05-15T21:24:28.647Z,45.15
2019-05-15T21:26:58.276Z,45.08
2019-05-15T21:29:27.911Z,44.86
2019-05-15T21:31:58.076Z,45.51
2019-05-15T21:34:37.427Z,44.88
2019-05-15T21:36:59.206Z,45.48
2019-05-15T21:39:30.233Z,45.94
2019-05-15T21:42:00.052Z,46.13
2019-05-15T21:44:29.703Z,46.35
2019-05-15T21:46:59.349Z,46.03
2019-05-15T21:49:28.964Z,46.01
2019-05-15T21:51:58.606Z,46.14
2019-05-15T21:54:28.342Z,46.44
2019-05-15T21:57:11.091Z,47.06
2019-05-15T21:59:29.303Z,47.17
2019-05-15T22:01:59.188Z,48.21
2019-05-15T22:04:30.546Z,47.86
2019-05-15T22:07:00.382Z,48.44
2019-05-15T22:09:30.250Z,48.70
2019-05-15T22:12:01.438Z,48.92
2019-05-15T22:14:31.157Z,48.32
2019-05-15T22:17:00.858Z,48.21
2019-05-15T22:19:30.531Z,48.42
2019-05-15T22:22:00.244Z,48.91
2019-05-15T22:24:30.178Z,49.51
2019-05-15T22:26:59.936Z,49.49
2019-05-15T22:29:29.671Z,49.67
2019-05-15T22:31:59.293Z,50.24
2019-05-15T22:34:28.987Z,49.92
2019-05-15T22:36:58.706Z,50.33
2019-05-15T22:39:28.323Z,50.32
2019-05-15T22:41:58.250Z,51.21
2019-05-15T22:44:28.172Z,50.88
2019-05-15T22:46:58.193Z,51.03
2019-05-15T22:49:28.837Z,51.22
2019-05-15T22:51:58.697Z,50.74
2019-05-15T22:54:28.386Z,51.12
2019-05-15T22:56:58.218Z,50.94
2019-05-15T22:59:28.361Z,51.04
2019-05-15T23:01:58.513Z,50.36
2019-05-15T23:04:28.704Z,51.31
2019-05-15T23:06:58.534Z,51.42
2019-05-15T23:09:28.500Z,51.63
2019-05-15T23:11:58.814Z,51.72
2019-05-15T23:14:28.853Z,51.26
2019-05-15T23:16:59.095Z,52.10
2019-05-15T23:19:28.821Z,52.64
2019-05-15T23:21:59.042Z,52.94
2019-05-15T23:24:28.976Z,52.09
2019-05-15T23:26:58.590Z,52.18
2019-05-15T23:29:28.204Z,52.19
2019-05-15T23:31:58.425Z,53.17
2019-05-15T23:34:28.141Z,53.55
2019-05-15T23:36:57.791Z,52.38
2019-05-15T23:39:27.447Z,52.89
2019-05-15T23:41:58.501Z,52.99
2019-05-15T23:44:28.286Z,52.95
2019-05-15T23:46:57.923Z,52.36
2019-05-15T23:49:27.929Z,52.77
2019-05-15T23:51:58.247Z,53.41
2019-05-15T23:54:28.055Z,54.03
2019-05-15T23:56:58.377Z,54.82
2019-05-15T23:59:28.300Z,54.32
